Time;durP1;ratioP1;P1;durP2;ratioP2;P2;SDS_P1;SDS_P2;PMS_P1;PMS_P2;Temp;Humidity;BMP_temperature;BMP_pressure;BME280_temperature;BME280_humidity;BME280_pressure;Samples;Min_cycle;Max_cycle;Signal;HPM_P1;HPM_P2
2022/04/18 00:01:01;;;;;;;;;18.75;17.75;;;;;11.96;38.11;-18810.09;5046695;28;10585;-69
2022/04/18 00:03:27;;;;;;;;;17.00;14.25;;;;;11.97;38.05;-18810.41;5032518;28;10387;-69
2022/04/18 00:05:54;;;;;;;;;18.00;17.25;;;;;11.95;38.32;-18809.63;5014137;28;10490;-69
2022/04/18 00:08:20;;;;;;;;;22.00;19.00;;;;;11.94;37.82;-18809.34;5032174;28;10333;-72
2022/04/18 00:10:47;;;;;;;;;20.75;17.00;;;;;11.86;38.08;-18806.91;5046061;28;10609;-70
2022/04/18 00:13:13;;;;;;;;;22.00;19.75;;;;;11.82;38.62;-18805.72;5033723;28;10540;-69
2022/04/18 00:15:40;;;;;;;;;21.00;19.00;;;;;11.78;38.44;-18804.50;5040174;28;10497;-69
2022/04/18 00:18:06;;;;;;;;;18.00;17.50;;;;;11.85;38.40;-18806.78;5050684;28;10577;-69
2022/04/18 00:20:32;;;;;;;;;14.00;14.00;;;;;11.82;39.09;-18805.72;5051640;28;10333;-72
2022/04/18 00:22:59;;;;;;;;;16.50;16.50;;;;;11.85;39.04;-18806.78;5050440;28;10362;-70
2022/04/18 00:25:25;;;;;;;;;18.50;14.00;;;;;11.64;38.85;-18800.44;5030832;28;10403;-69
2022/04/18 00:27:52;;;;;;;;;23.25;18.75;;;;;11.62;38.77;-18799.97;5042794;28;10609;-69
2022/04/18 00:30:18;;;;;;;;;17.50;17.50;;;;;11.59;38.83;-18798.94;5030043;28;10691;-68
2022/04/18 00:32:45;;;;;;;;;19.25;18.75;;;;;11.56;39.41;-18798.19;5033156;28;10765;-69
2022/04/18 00:35:12;;;;;;;;;22.25;20.00;;;;;11.58;38.66;-18798.78;5032119;28;10642;-69
2022/04/18 00:37:40;;;;;;;;;21.50;18.50;;;;;11.52;38.78;-18796.81;5042341;28;10652;-69
2022/04/18 00:40:08;;;;;;;;;21.25;18.00;;;;;11.47;39.21;-18795.31;5051279;28;10747;-69
2022/04/18 00:42:35;;;;;;;;;22.75;22.25;;;;;11.33;39.23;-18791.38;5043588;28;10758;-69
2022/04/18 00:45:01;;;;;;;;;17.25;16.50;;;;;11.33;39.45;-18791.38;5048937;28;11021;-72
2022/04/18 00:47:29;;;;;;;;;24.50;23.00;;;;;11.31;39.55;-18790.78;5049696;28;11520;-69
2022/04/18 00:49:56;;;;;;;;;20.75;18.75;;;;;11.26;40.03;-18789.13;5042680;28;11422;-68
2022/04/18 00:52:24;;;;;;;;;28.50;26.50;;;;;11.22;39.83;-18788.06;5034955;28;11482;-69
2022/04/18 00:54:54;;;;;;;;;18.75;17.50;;;;;11.22;40.19;-18788.06;5046541;28;10980;-69
2022/04/18 00:57:22;;;;;;;;;21.00;18.50;;;;;11.26;40.24;-18789.13;5049543;28;10596;-69
2022/04/18 00:59:48;;;;;;;;;19.75;19.75;;;;;11.34;39.74;-18791.53;5046508;28;10745;-69
2022/04/18 01:02:17;;;;;;;;;20.00;18.00;;;;;11.23;40.40;-18788.22;5029887;28;11624;-70
2022/04/18 01:04:43;;;;;;;;;21.75;21.75;;;;;11.12;40.31;-18785.06;5028365;28;11347;-69
2022/04/18 01:07:12;;;;;;;;;22.00;22.00;;;;;11.10;40.56;-18784.44;5049490;28;10595;-71
2022/04/18 01:09:38;;;;;;;;;23.50;21.75;;;;;11.08;40.79;-18783.84;5033114;28;11583;-69
2022/04/18 01:12:05;;;;;;;;;25.67;23.33;;;;;11.12;40.61;-18785.06;5020061;28;11615;-69
2022/04/18 01:14:50;;;;;;;;;23.50;20.75;;;;;11.06;41.15;-18783.25;4999495;28;11052;-71
2022/04/18 01:17:56;;;;;;;;;21.50;19.50;;;;;11.10;40.77;-18784.44;5002013;28;11584;-68
2022/04/18 01:20:42;;;;;;;;;21.75;17.25;;;;;11.01;41.26;-18781.88;5049106;28;10899;-72
2022/04/18 01:23:26;;;;;;;;;21.25;20.75;;;;;10.99;41.16;-18781.13;5029714;28;10921;-69
2022/04/18 01:28:58;;;;;;;;;20.25;19.75;;;;;10.87;41.29;-18777.50;5029329;28;10883;-70
2022/04/18 01:31:29;;;;;;;;;27.25;22.75;;;;;10.83;42.02;-18776.31;5013081;28;10776;-70
2022/04/18 01:33:57;;;;;;;;;19.00;19.00;;;;;10.82;41.66;-18776.00;5029651;28;11037;-69
2022/04/18 01:36:24;;;;;;;;;24.50;23.25;;;;;10.75;42.25;-18774.19;5032439;28;10722;-69
2022/04/18 01:38:51;;;;;;;;;25.25;23.00;;;;;10.69;42.36;-18772.38;5031487;28;10897;-71
2022/04/18 01:41:19;;;;;;;;;23.25;22.50;;;;;10.65;42.35;-18771.19;5012997;28;11082;-69
2022/04/18 01:43:45;;;;;;;;;29.50;25.75;;;;;10.65;43.06;-18771.19;5032001;28;11260;-70
2022/04/18 01:46:15;;;;;;;;;20.75;19.75;;;;;10.59;42.86;-18769.22;5032422;28;11227;-69
2022/04/18 01:48:42;;;;;;;;;22.75;21.00;;;;;10.65;42.70;-18771.19;5014173;28;11491;-71
2022/04/18 01:51:09;;;;;;;;;31.25;26.50;;;;;10.62;43.12;-18770.13;5018991;28;11531;-69
2022/04/18 01:53:36;;;;;;;;;21.75;21.50;;;;;10.61;43.01;-18769.97;5032634;28;11168;-70
2022/04/18 01:56:03;;;;;;;;;27.00;25.25;;;;;10.58;43.53;-18769.06;5049115;28;11117;-68
2022/04/18 01:58:33;;;;;;;;;20.00;19.50;;;;;10.56;43.07;-18768.31;5048158;28;11367;-72
2022/04/18 02:01:00;;;;;;;;;25.50;24.75;;;;;10.47;42.73;-18765.91;5031713;28;10831;-72
2022/04/18 02:03:27;;;;;;;;;22.25;22.25;;;;;10.57;43.12;-18768.63;5031957;28;11132;-69
2022/04/18 02:05:55;;;;;;;;;17.25;17.00;;;;;10.61;42.95;-18769.81;5049639;28;11067;-69
2022/04/18 02:08:23;;;;;;;;;30.50;30.00;;;;;10.58;42.80;-18769.06;5023332;28;11189;-69
2022/04/18 02:10:50;;;;;;;;;29.75;26.00;;;;;10.44;43.00;-18765.00;5014131;28;11272;-71
2022/04/18 02:13:28;;;;;;;;;20.25;18.75;;;;;10.57;43.05;-18768.63;5025999;28;11645;-69
2022/04/18 02:15:57;;;;;;;;;23.25;20.50;;;;;10.64;42.65;-18770.72;5031028;28;11078;-73
2022/04/18 02:18:24;;;;;;;;;26.50;24.25;;;;;10.67;42.01;-18771.63;5049658;28;11034;-71
2022/04/18 02:20:51;;;;;;;;;22.50;20.75;;;;;10.64;41.82;-18770.88;5049276;28;12045;-69
2022/04/18 02:23:18;;;;;;;;;23.00;23.00;;;;;10.70;42.14;-18772.69;5028803;28;11058;-69
2022/04/18 02:25:44;;;;;;;;;26.50;24.00;;;;;10.68;42.04;-18772.09;5028709;28;11350;-70
2022/04/18 02:28:13;;;;;;;;;29.75;24.50;;;;;10.60;42.21;-18769.66;5031512;28;11223;-69
2022/04/18 02:30:46;;;;;;;;;32.25;31.50;;;;;10.51;42.33;-18766.81;5033128;28;10957;-72
2022/04/18 02:33:13;;;;;;;;;28.00;25.75;;;;;10.53;42.68;-18767.56;5053615;28;11555;-69
2022/04/18 02:35:39;;;;;;;;;24.00;22.75;;;;;10.51;42.69;-18766.94;5018142;28;11227;-70
2022/04/18 02:38:06;;;;;;;;;34.00;29.00;;;;;10.51;42.70;-18766.81;5039526;28;11249;-69
2022/04/18 02:40:38;;;;;;;;;24.50;24.50;;;;;10.45;42.88;-18765.28;5035667;28;11341;-69
2022/04/18 02:43:05;;;;;;;;;28.25;23.00;;;;;10.43;43.26;-18764.69;5035023;28;11282;-69
2022/04/18 02:45:33;;;;;;;;;28.25;26.00;;;;;10.38;43.40;-18763.03;5035433;28;12250;-69
2022/04/18 02:48:13;;;;;;;;;25.75;25.75;;;;;10.44;43.07;-18765.00;5035451;28;11130;-70
2022/04/18 02:50:43;;;;;;;;;25.50;21.25;;;;;10.46;43.09;-18765.59;5028140;28;11283;-71
2022/04/18 02:53:11;;;;;;;;;31.75;28.25;;;;;10.43;43.16;-18764.53;5015646;28;10891;-69
2022/04/18 02:55:46;;;;;;;;;24.00;21.75;;;;;10.40;43.51;-18763.63;5032278;28;11730;-69
2022/04/18 02:58:13;;;;;;;;;27.00;25.25;;;;;10.35;43.49;-18762.28;5032030;28;11023;-69
2022/04/18 03:00:41;;;;;;;;;29.25;28.00;;;;;10.26;43.61;-18759.41;5028812;28;11085;-69
2022/04/18 03:03:08;;;;;;;;;26.75;24.75;;;;;10.27;43.54;-18759.72;5035001;28;11178;-69
2022/04/18 03:05:36;;;;;;;;;27.25;26.25;;;;;10.15;43.81;-18756.38;5053411;28;11338;-72
2022/04/18 03:08:03;;;;;;;;;28.25;26.75;;;;;10.12;43.92;-18755.31;5015571;28;11221;-70
2022/04/18 03:13:19;;;;;;;;;26.00;26.00;;;;;10.13;44.06;-18755.63;5031867;28;11265;-71
2022/04/18 03:15:46;;;;;;;;;27.50;27.00;;;;;10.09;44.01;-18754.44;5033542;28;11614;-70
2022/04/18 03:18:13;;;;;;;;;29.50;26.00;;;;;10.05;44.27;-18753.38;5051538;28;12287;-69
2022/04/18 03:20:40;;;;;;;;;24.75;24.50;;;;;10.12;44.19;-18755.47;5034990;28;11207;-71
2022/04/18 03:23:07;;;;;;;;;28.25;26.75;;;;;10.08;43.92;-18754.28;5035169;28;11972;-69
2022/04/18 03:25:53;;;;;;;;;23.75;22.50;;;;;10.11;44.24;-18755.19;5051490;28;11524;-69
2022/04/18 03:28:20;;;;;;;;;22.00;19.75;;;;;10.01;44.45;-18752.00;5036871;28;11380;-70
2022/04/18 03:30:47;;;;;;;;;24.00;21.50;;;;;10.09;44.49;-18754.44;5050880;28;11034;-70
2022/04/18 03:33:14;;;;;;;;;23.00;21.50;;;;;10.09;44.73;-18754.56;5034620;28;11220;-68
2022/04/18 03:39:50;;;;;;;;;22.75;22.75;;;;;10.03;44.50;-18752.75;5018185;28;10989;-69
2022/04/18 03:41:17;;;;;;;;;18.25;18.25;;;;;10.06;45.00;-18753.53;5031098;28;11231;-69
2022/04/18 03:43:44;;;;;;;;;17.75;17.50;;;;;10.06;45.01;-18753.66;5018887;28;10922;-69
2022/04/18 03:46:10;;;;;;;;;17.50;15.00;;;;;10.08;45.16;-18754.28;5031553;28;10943;-69
2022/04/18 03:48:37;;;;;;;;;14.75;14.75;;;;;10.03;45.68;-18752.75;5018286;28;10901;-71
2022/04/18 03:51:03;;;;;;;;;20.00;18.75;;;;;10.02;45.24;-18752.47;5020303;28;10687;-69
2022/04/18 03:53:31;;;;;;;;;18.75;18.25;;;;;9.97;45.53;-18750.97;5034854;28;11083;-71
2022/04/18 03:55:58;;;;;;;;;23.50;21.25;;;;;9.97;46.34;-18750.97;5033376;28;10816;-69
2022/04/18 03:58:50;;;;;;;;;19.00;19.00;;;;;9.95;46.50;-18750.19;5052003;28;11052;-69
2022/04/18 04:01:17;;;;;;;;;25.25;21.00;;;;;9.88;46.60;-18748.22;5034413;28;10921;-69
2022/04/18 04:03:46;;;;;;;;;25.25;22.50;;;;;9.86;46.85;-18747.63;5049690;28;11044;-70
2022/04/18 04:06:13;;;;;;;;;28.00;23.25;;;;;9.89;46.61;-18748.53;5051288;28;11236;-70
2022/04/18 04:08:39;;;;;;;;;20.25;18.00;;;;;9.85;46.89;-18747.34;5018035;28;11345;-72
2022/04/18 04:11:10;;;;;;;;;22.25;22.00;;;;;9.84;47.27;-18747.03;5028136;28;10887;-69
2022/04/18 04:13:40;;;;;;;;;18.50;17.00;;;;;9.81;47.24;-18746.13;5018369;28;11228;-70
2022/04/18 04:16:13;;;;;;;;;18.00;16.25;;;;;9.86;47.53;-18747.78;5050546;28;11670;-73
2022/04/18 04:18:40;;;;;;;;;15.75;13.25;;;;;9.90;48.05;-18748.69;5025490;28;10977;-70
2022/04/18 04:21:08;;;;;;;;;18.25;16.75;;;;;9.90;47.99;-18748.84;5040695;28;10728;-70
2022/04/18 04:23:35;;;;;;;;;17.50;17.50;;;;;9.85;48.34;-18747.47;5033337;28;10945;-69
2022/04/18 04:26:28;;;;;;;;;16.50;16.50;;;;;9.85;48.49;-18747.47;5051650;28;10989;-72
2022/04/18 04:28:56;;;;;;;;;19.75;15.75;;;;;9.81;48.26;-18746.28;5033837;28;10954;-71
2022/04/18 04:32:01;;;;;;;;;19.75;16.25;;;;;9.78;48.41;-18745.22;5034553;28;10994;-70
2022/04/18 04:34:30;;;;;;;;;17.75;16.75;;;;;9.74;48.29;-18744.16;5038743;28;10832;-73
2022/04/18 04:37:25;;;;;;;;;23.25;20.25;;;;;9.67;48.55;-18742.06;5024206;28;10958;-70
2022/04/18 04:39:58;;;;;;;;;21.00;21.00;;;;;9.74;48.50;-18744.00;5031348;28;11169;-70
2022/04/18 04:42:28;;;;;;;;;13.50;13.00;;;;;9.78;48.54;-18745.38;5031814;28;11314;-73
2022/04/18 04:44:55;;;;;;;;;17.25;17.25;;;;;9.77;48.57;-18744.91;5033763;28;10596;-71
2022/04/18 04:47:33;;;;;;;;;17.00;15.25;;;;;9.72;48.17;-18743.41;5033037;28;10885;-71
2022/04/18 04:50:00;;;;;;;;;19.50;17.00;;;;;9.77;47.86;-18745.06;5033591;28;11132;-70
2022/04/18 04:52:35;;;;;;;;;19.50;16.50;;;;;9.77;47.80;-18745.06;5050487;28;11031;-73
2022/04/18 04:55:01;;;;;;;;;22.00;19.25;;;;;9.75;48.38;-18744.47;5030712;28;10889;-71
2022/04/18 04:57:43;;;;;;;;;21.00;20.25;;;;;9.66;48.60;-18741.59;5033375;28;11178;-68
2022/04/18 05:00:19;;;;;;;;;24.00;23.00;;;;;9.60;49.75;-18739.78;5051484;28;11488;-70
2022/04/18 05:03:03;;;;;;;;;21.50;21.50;;;;;9.64;49.74;-18741.00;5018852;28;11421;-69
2022/04/18 05:05:32;;;;;;;;;22.00;19.50;;;;;9.59;50.23;-18739.63;5013688;28;11380;-70
2022/04/18 05:08:00;;;;;;;;;18.50;18.50;;;;;9.62;50.53;-18740.38;5013064;28;10902;-69
2022/04/18 05:10:30;;;;;;;;;21.50;21.50;;;;;9.59;50.84;-18739.63;5049926;28;10995;-68
2022/04/18 05:12:59;;;;;;;;;27.00;27.00;;;;;9.95;50.62;-18750.34;5033802;28;11129;-71
2022/04/18 05:15:26;;;;;;;;;22.25;19.25;;;;;10.35;49.47;-18762.28;5015945;28;11587;-68
2022/04/18 05:18:13;;;;;;;;;20.50;20.25;;;;;10.25;49.82;-18759.09;5029785;28;10768;-68
2022/04/18 05:20:39;;;;;;;;;19.00;18.25;;;;;10.45;49.19;-18765.28;5016646;28;10896;-72
2022/04/18 05:23:06;;;;;;;;;15.25;12.50;;;;;10.63;48.71;-18770.56;5041334;28;10911;-72
2022/04/18 05:25:33;;;;;;;;;18.00;16.75;;;;;10.42;49.61;-18764.25;5023761;28;10875;-72
2022/04/18 05:27:59;;;;;;;;;19.75;18.50;;;;;10.27;50.22;-18759.88;5032747;28;10892;-72
2022/04/18 05:30:29;;;;;;;;;16.50;16.50;;;;;10.34;50.21;-18761.97;5029683;28;11049;-73
2022/04/18 05:32:56;;;;;;;;;21.25;15.75;;;;;10.12;50.87;-18755.31;5042761;28;10995;-72
2022/04/18 05:35:24;;;;;;;;;19.00;16.75;;;;;10.14;50.99;-18755.94;5049597;28;10899;-70
2022/04/18 05:37:50;;;;;;;;;17.50;16.50;;;;;10.18;50.24;-18757.16;5031495;28;11048;-71
2022/04/18 05:40:36;;;;;;;;;16.75;15.75;;;;;10.16;50.55;-18756.69;5032861;28;10840;-69
2022/04/18 05:43:04;;;;;;;;;16.00;12.00;;;;;10.21;50.12;-18758.06;5012983;28;10844;-69
2022/04/18 05:45:32;;;;;;;;;17.00;17.00;;;;;10.30;50.04;-18760.78;5029408;28;10973;-72
2022/04/18 05:48:10;;;;;;;;;16.75;16.75;;;;;10.32;49.27;-18761.38;5030737;28;10841;-72
2022/04/18 05:50:47;;;;;;;;;21.50;20.00;;;;;10.26;49.73;-18759.41;5046831;28;10833;-68
2022/04/18 05:53:32;;;;;;;;;14.75;13.25;;;;;10.35;49.85;-18762.13;5029549;28;11238;-69
2022/04/18 05:56:04;;;;;;;;;17.00;16.75;;;;;10.42;49.15;-18764.25;5028775;28;10897;-69
2022/04/18 05:58:42;;;;;;;;;15.00;14.00;;;;;10.63;48.72;-18770.41;5021439;28;11540;-70
2022/04/18 06:01:26;;;;;;;;;19.00;17.00;;;;;10.89;48.15;-18778.13;5027851;28;10796;-69
2022/04/18 06:03:53;;;;;;;;;21.50;19.25;;;;;11.21;47.62;-18787.63;5044253;28;10649;-69
2022/04/18 06:06:20;;;;;;;;;22.00;18.75;;;;;11.57;46.23;-18798.47;5039539;28;10688;-69
2022/04/18 06:08:46;;;;;;;;;18.25;17.25;;;;;11.75;45.70;-18803.75;5033183;28;10906;-70
2022/04/18 06:11:19;;;;;;;;;19.75;18.75;;;;;11.96;44.89;-18810.09;5034294;28;10587;-70
2022/04/18 06:13:55;;;;;;;;;26.50;21.00;;;;;11.81;44.29;-18805.41;5047407;28;10861;-72
2022/04/18 06:16:22;;;;;;;;;23.25;22.50;;;;;12.21;44.11;-18817.47;5026176;28;10984;-69
2022/04/18 06:18:48;;;;;;;;;16.25;16.00;;;;;12.65;43.30;-18830.44;5038487;28;10843;-70
2022/04/18 06:21:15;;;;;;;;;17.50;15.75;;;;;12.60;42.84;-18829.09;5031511;28;10729;-70
2022/04/18 06:23:44;;;;;;;;;19.00;19.00;;;;;12.74;42.61;-18833.00;5031042;28;10653;-69
2022/04/18 06:26:25;;;;;;;;;22.75;19.25;;;;;12.80;42.22;-18834.97;5047716;28;11542;-71
2022/04/18 06:28:54;;;;;;;;;17.75;14.25;;;;;13.02;41.91;-18841.44;5031963;28;10586;-69
2022/04/18 06:31:21;;;;;;;;;17.75;16.75;;;;;13.05;41.96;-18842.19;5026176;28;10538;-69
2022/04/18 06:33:56;;;;;;;;;25.75;16.00;;;;;13.18;41.47;-18846.13;5012243;28;10683;-69
2022/04/18 06:36:24;;;;;;;;;24.25;20.50;;;;;13.24;41.64;-18848.06;5016800;28;10231;-71
2022/04/18 06:39:09;;;;;;;;;18.75;16.50;;;;;13.34;41.46;-18850.78;5048631;28;10519;-69
2022/04/18 06:41:36;;;;;;;;;16.75;16.75;;;;;13.49;40.59;-18855.44;5045827;28;10509;-71
2022/04/18 06:44:05;;;;;;;;;21.25;16.25;;;;;13.66;40.64;-18860.28;5036139;28;10251;-69
2022/04/18 06:46:43;;;;;;;;;17.25;15.50;;;;;13.74;40.00;-18862.84;5042786;28;10237;-69
2022/04/18 06:49:23;;;;;;;;;16.75;15.50;;;;;13.84;40.36;-18865.84;5044406;28;10410;-70
2022/04/18 06:52:12;;;;;;;;;20.50;15.75;;;;;13.97;39.34;-18869.59;5039348;28;10336;-70
2022/04/18 06:54:58;;;;;;;;;17.50;16.50;;;;;14.00;39.00;-18870.38;5028799;28;11083;-69
2022/04/18 06:57:25;;;;;;;;;17.00;16.75;;;;;13.90;39.49;-18867.34;5011682;28;11138;-70
2022/04/18 06:59:55;;;;;;;;;15.25;12.00;;;;;14.03;39.58;-18871.41;5031302;28;10156;-69
2022/04/18 07:02:24;;;;;;;;;16.00;13.25;;;;;14.15;39.31;-18874.88;5047550;28;10263;-69
2022/04/18 07:04:51;;;;;;;;;15.75;14.75;;;;;14.49;39.20;-18884.81;5038172;28;10186;-70
2022/04/18 07:07:18;;;;;;;;;15.00;14.00;;;;;14.62;38.88;-18888.88;5028888;28;10905;-70
2022/04/18 07:09:45;;;;;;;;;14.25;14.00;;;;;14.74;38.74;-18892.34;5048692;28;10107;-69
2022/04/18 07:12:23;;;;;;;;;15.75;15.75;;;;;14.63;38.19;-18889.19;5029364;28;10155;-69
2022/04/18 07:14:51;;;;;;;;;13.75;12.50;;;;;14.85;38.27;-18895.50;5032511;28;10202;-69
2022/04/18 07:17:17;;;;;;;;;14.50;12.75;;;;;14.94;38.36;-18898.22;5034668;28;10114;-70
2022/04/18 07:19:45;;;;;;;;;12.75;12.25;;;;;15.03;38.14;-18900.94;5035481;28;10058;-69
2022/04/18 07:22:14;;;;;;;;;13.50;13.50;;;;;15.01;37.98;-18900.31;5035101;28;10535;-68
2022/04/18 07:24:42;;;;;;;;;15.00;12.00;;;;;15.12;38.19;-18903.47;5035079;28;9860;-69
2022/04/18 07:27:09;;;;;;;;;11.50;10.25;;;;;15.17;38.48;-18905.13;5034553;28;9904;-72
2022/04/18 07:29:43;;;;;;;;;18.00;11.00;;;;;15.17;38.36;-18905.13;5017694;28;9692;-69
2022/04/18 07:32:09;;;;;;;;;16.25;15.75;;;;;15.00;38.38;-18900.03;5045761;28;9936;-72
2022/04/18 07:34:36;;;;;;;;;13.75;11.50;;;;;15.26;37.10;-18907.84;5016853;28;10027;-68
2022/04/18 07:37:05;;;;;;;;;12.75;10.25;;;;;15.41;37.22;-18912.22;5045283;28;9898;-68
2022/04/18 07:39:32;;;;;;;;;11.00;11.00;;;;;15.91;38.28;-18927.09;5035218;28;10021;-69
2022/04/18 07:41:58;;;;;;;;;9.00;9.00;;;;;15.75;35.87;-18922.16;5029572;28;9699;-70
2022/04/18 07:44:28;;;;;;;;;7.00;7.00;;;;;15.75;36.27;-18922.16;5032314;28;9699;-71
2022/04/18 07:46:54;;;;;;;;;9.00;9.00;;;;;15.79;35.72;-18923.50;5051424;28;9596;-70
2022/04/18 07:49:26;;;;;;;;;12.00;9.00;;;;;15.82;34.91;-18924.25;5016037;28;9718;-70
2022/04/18 07:51:54;;;;;;;;;10.75;10.75;;;;;15.66;34.78;-18919.59;5015261;28;9682;-69
2022/04/18 07:54:35;;;;;;;;;11.00;10.00;;;;;15.74;34.60;-18921.84;5027836;28;9703;-72
2022/04/18 07:57:02;;;;;;;;;9.50;8.25;;;;;15.73;35.17;-18921.69;5034605;28;9689;-69
2022/04/18 07:59:36;;;;;;;;;12.50;10.75;;;;;15.82;35.24;-18924.25;5034164;28;9588;-71
2022/04/18 08:02:08;;;;;;;;;8.00;6.50;;;;;15.93;33.32;-18927.56;5050182;28;9697;-70
2022/04/18 08:05:14;;;;;;;;;8.50;7.75;;;;;16.25;33.58;-18937.03;4991011;28;9660;-70
2022/04/18 08:07:51;;;;;;;;;7.75;6.75;;;;;16.45;32.71;-18942.91;4985360;28;9439;-71
2022/04/18 08:10:18;;;;;;;;;15.00;9.75;;;;;16.65;32.34;-18948.75;5018877;28;9583;-73
2022/04/18 08:12:45;;;;;;;;;7.75;7.75;;;;;16.90;31.73;-18956.44;5028898;28;9463;-70
2022/04/18 08:15:32;;;;;;;;;7.75;7.75;;;;;17.06;31.96;-18960.94;5042557;28;9480;-70
2022/04/18 08:17:59;;;;;;;;;8.00;8.00;;;;;17.26;31.23;-18966.81;5034278;28;9470;-72
2022/04/18 08:20:58;;;;;;;;;5.33;5.33;;;;;17.54;29.66;-18975.38;5026840;28;9420;-70
2022/04/18 08:23:24;;;;;;;;;4.00;4.00;;;;;17.58;28.94;-18976.41;5047490;28;9298;-70
2022/04/18 08:26:26;;;;;;;;;6.00;6.00;;;;;17.68;28.79;-18979.28;4977100;28;9141;-70
2022/04/18 08:28:56;;;;;;;;;6.00;6.00;;;;;17.73;29.41;-18980.78;5021537;28;9793;-70
2022/04/18 08:31:24;;;;;;;;;3.00;3.00;;;;;17.82;29.16;-18983.63;5044440;28;9129;-71
2022/04/18 08:34:13;;;;;;;;;7.00;4.33;;;;;17.80;29.42;-18982.88;5043909;28;8990;-73
2022/04/18 08:36:40;;;;;;;;;6.67;6.67;;;;;18.05;29.50;-18990.25;5030399;28;9053;-70
2022/04/18 08:39:09;;;;;;;;;5.00;3.00;;;;;18.03;29.84;-18989.66;5047304;28;9178;-73
2022/04/18 08:41:52;;;;;;;;;7.00;7.00;;;;;17.57;29.94;-18976.13;5036544;28;9020;-70
2022/04/18 08:44:26;;;;;;;;;4.00;4.00;;;;;17.35;30.81;-18969.66;5023791;28;9807;-71
2022/04/18 08:46:56;;;;;;;;;5.00;5.00;;;;;17.25;31.51;-18966.66;5032961;28;9002;-71
2022/04/18 08:55:01;;;;;;;;;6.33;5.33;;;;;18.45;31.03;-19002.25;5013793;28;10002;-72
2022/04/18 08:57:28;;;;;;;;;5.00;5.00;;;;;18.85;30.76;-19013.97;5041347;28;9741;-71
2022/04/18 08:59:55;;;;;;;;;7.00;7.00;;;;;18.93;28.96;-19016.38;5030338;28;9095;-71
2022/04/18 09:02:25;;;;;;;;;6.00;6.00;;;;;19.21;29.07;-19024.47;5027609;28;9067;-71
2022/04/18 09:05:12;;;;;;;;;6.50;6.50;;;;;19.58;28.69;-19035.44;5030420;28;8989;-71
2022/04/18 09:07:56;;;;;;;;;6.25;6.00;;;;;19.82;28.60;-19042.66;5025062;28;8841;-71
2022/04/18 09:10:25;;;;;;;;;6.50;6.50;;;;;20.14;27.74;-19051.94;5032510;28;8968;-70
2022/04/18 09:13:02;;;;;;;;;6.00;6.00;;;;;20.12;28.04;-19051.50;5027863;28;8971;-71
2022/04/18 09:15:45;;;;;;;;;5.25;5.25;;;;;20.11;28.26;-19051.19;5049776;28;8850;-71
2022/04/18 09:18:17;;;;;;;;;7.25;7.25;;;;;19.97;28.25;-19047.16;5032786;28;8831;-70
2022/04/18 09:20:48;;;;;;;;;5.50;5.00;;;;;20.12;28.31;-19051.34;5032396;28;8886;-70
2022/04/18 09:23:23;;;;;;;;;5.00;5.00;;;;;20.08;28.46;-19050.16;5042262;28;8860;-71
2022/04/18 09:25:55;;;;;;;;;8.25;6.50;;;;;19.72;29.72;-19039.50;5039552;28;8841;-71
2022/04/18 09:28:28;;;;;;;;;5.00;5.00;;;;;19.54;30.01;-19034.41;5030028;28;8942;-70
2022/04/18 09:31:04;;;;;;;;;7.75;7.75;;;;;19.56;30.11;-19034.84;5021674;28;8962;-76
2022/04/18 09:33:52;;;;;;;;;7.00;7.00;;;;;19.58;29.94;-19035.59;5030911;28;9595;-71
2022/04/18 09:36:21;;;;;;;;;8.00;8.00;;;;;19.81;30.14;-19042.34;5045400;28;9628;-71
2022/04/18 09:38:54;;;;;;;;;6.50;4.50;;;;;19.83;30.03;-19042.94;5014513;28;8846;-72
2022/04/18 09:41:36;;;;;;;;;8.25;8.00;;;;;19.42;30.03;-19030.63;5030720;28;8908;-70
2022/04/18 09:44:23;;;;;;;;;6.50;6.00;;;;;19.63;30.52;-19036.94;5029955;28;8864;-74
2022/04/18 09:46:49;;;;;;;;;7.00;7.00;;;;;19.52;30.42;-19033.63;5022470;28;8847;-75
2022/04/18 09:49:39;;;;;;;;;6.75;4.25;;;;;19.45;30.56;-19031.69;5044655;28;9549;-74
2022/04/18 09:52:16;;;;;;;;;6.00;6.00;;;;;19.40;30.26;-19030.19;5032529;28;8839;-71
2022/04/18 09:54:57;;;;;;;;;4.25;4.25;;;;;19.53;30.56;-19033.94;5050148;28;8893;-71
2022/04/18 09:57:29;;;;;;;;;6.00;6.00;;;;;19.65;30.63;-19037.56;5050127;28;8846;-74
2022/04/18 09:59:58;;;;;;;;;4.50;4.50;;;;;19.48;30.27;-19032.44;5034968;28;9555;-71
2022/04/18 10:02:26;;;;;;;;;6.50;6.50;;;;;19.48;30.81;-19032.44;5035881;28;8835;-70
2022/04/18 10:04:54;;;;;;;;;6.25;6.25;;;;;19.53;30.21;-19033.94;5049773;28;8835;-70
2022/04/18 10:07:20;;;;;;;;;5.25;5.25;;;;;19.60;29.99;-19036.06;5049943;28;8833;-71
2022/04/18 10:09:47;;;;;;;;;7.75;7.75;;;;;19.82;29.88;-19042.50;5032390;28;8847;-71
2022/04/18 10:12:14;;;;;;;;;7.00;7.00;;;;;19.92;30.08;-19045.66;5050083;28;8854;-70
2022/04/18 10:14:42;;;;;;;;;7.75;7.75;;;;;19.96;30.36;-19046.84;5050066;28;8838;-72
2022/04/18 10:17:10;;;;;;;;;8.75;8.75;;;;;19.94;28.76;-19046.09;5047593;28;8855;-71
2022/04/18 10:20:03;;;;;;;;;6.25;6.00;;;;;20.34;29.34;-19057.94;5038810;28;8835;-72
2022/04/18 10:22:54;;;;;;;;;7.00;7.00;;;;;20.43;28.13;-19060.66;5050113;28;8846;-71
2022/04/18 10:25:45;;;;;;;;;5.00;5.00;;;;;20.81;28.26;-19071.75;5049354;28;8912;-70
2022/04/18 10:28:25;;;;;;;;;8.75;8.25;;;;;20.54;28.62;-19063.94;5030185;28;8826;-72
2022/04/18 10:30:57;;;;;;;;;7.00;7.00;;;;;20.75;28.48;-19070.09;5016647;28;8824;-71
2022/04/18 10:33:24;;;;;;;;;6.75;6.75;;;;;20.53;28.12;-19063.66;5046882;28;8835;-71
2022/04/18 10:35:59;;;;;;;;;8.25;7.50;;;;;20.67;28.87;-19067.69;5050009;28;8889;-71
2022/04/18 10:38:27;;;;;;;;;7.00;7.00;;;;;20.76;27.70;-19070.25;5049880;28;8815;-71
2022/04/18 10:41:14;;;;;;;;;7.25;6.25;;;;;20.92;28.04;-19075.03;5044882;28;8843;-70
2022/04/18 10:43:59;;;;;;;;;8.50;8.00;;;;;21.02;27.50;-19077.91;5041192;28;8855;-70
2022/04/18 10:46:25;;;;;;;;;8.00;8.00;;;;;20.96;27.39;-19076.25;5031223;28;8925;-69
2022/04/18 10:48:57;;;;;;;;;7.50;6.25;;;;;20.96;27.19;-19076.09;5043300;28;8822;-70
2022/04/18 10:51:34;;;;;;;;;8.00;6.75;;;;;20.67;27.12;-19067.56;5052848;28;8839;-70
2022/04/18 10:54:09;;;;;;;;;9.50;6.50;;;;;20.97;26.90;-19076.41;5035162;28;8842;-70
2022/04/18 10:56:47;;;;;;;;;5.50;5.50;;;;;21.30;27.46;-19086.28;5053301;28;8847;-70
2022/04/18 10:59:14;;;;;;;;;8.50;7.50;;;;;21.28;27.46;-19085.69;5035852;28;8847;-72
2022/04/18 11:01:42;;;;;;;;;5.00;4.75;;;;;21.53;27.11;-19093.03;5046846;28;8871;-70
2022/04/18 11:04:12;;;;;;;;;8.25;8.25;;;;;21.51;26.81;-19092.44;5040405;28;8899;-71
2022/04/18 11:06:40;;;;;;;;;8.75;8.00;;;;;21.62;26.64;-19095.75;5031049;28;8847;-72
2022/04/18 11:09:09;;;;;;;;;10.00;8.25;;;;;21.59;26.45;-19094.69;5051284;28;8847;-70
2022/04/18 11:11:46;;;;;;;;;7.75;7.50;;;;;21.59;27.31;-19094.84;5038891;28;8834;-73
2022/04/18 11:14:19;;;;;;;;;7.50;7.50;;;;;21.72;26.16;-19098.59;5045979;28;8828;-70
2022/04/18 11:16:47;;;;;;;;;7.75;6.75;;;;;21.74;26.18;-19099.19;5040550;28;9660;-72
2022/04/18 11:19:14;;;;;;;;;9.00;7.00;;;;;21.68;26.47;-19097.38;5048560;28;9518;-70
2022/04/18 11:22:01;;;;;;;;;9.00;6.75;;;;;21.84;25.83;-19102.19;5063518;23;9689;-71
2022/04/18 11:24:56;;;;;;;;;6.25;6.25;;;;;21.65;26.30;-19096.63;5020553;28;8842;-71
2022/04/18 11:27:26;;;;;;;;;8.75;5.50;;;;;21.99;25.71;-19106.66;5024868;28;8840;-71
2022/04/18 11:29:55;;;;;;;;;7.75;7.75;;;;;22.00;24.17;-19106.81;5024565;28;8856;-71
2022/04/18 11:32:24;;;;;;;;;7.00;7.00;;;;;21.94;24.61;-19105.16;5011998;28;9676;-71
2022/04/18 11:34:53;;;;;;;;;8.00;5.00;;;;;21.91;23.85;-19104.13;5007068;28;8953;-70
2022/04/18 11:37:34;;;;;;;;;2.25;2.25;;;;;21.94;20.93;-19105.16;5004167;28;8823;-71
2022/04/18 11:40:03;;;;;;;;;2.25;2.25;;;;;21.95;21.78;-19105.47;5006146;28;8825;-70
2022/04/18 11:42:32;;;;;;;;;1.50;1.50;;;;;21.85;21.88;-19102.47;5005844;28;8834;-71
2022/04/18 11:45:02;;;;;;;;;3.75;3.75;;;;;21.95;21.29;-19105.31;5005420;28;8847;-71
2022/04/18 11:47:50;;;;;;;;;3.50;3.50;;;;;21.90;21.75;-19103.97;5009485;28;8832;-71
2022/04/18 11:50:23;;;;;;;;;5.25;4.25;;;;;22.00;22.48;-19106.81;5008646;28;8856;-71
2022/04/18 11:53:02;;;;;;;;;3.75;3.75;;;;;22.28;22.12;-19115.22;4999051;28;8844;-71
2022/04/18 11:55:29;;;;;;;;;3.00;3.00;;;;;22.18;21.39;-19112.06;5004774;28;8874;-71